Time;durP1;ratioP1;P1;durP2;ratioP2;P2;SDS_P1;SDS_P2;PMS_P1;PMS_P2;Temp;Humidity;BMP_temperature;BMP_pressure;BME280_temperature;BME280_humidity;BME280_pressure;Samples;Min_cycle;Max_cycle;Signal;HPM_P1;HPM_P2
2023/10/20 00:02:59;;;;;;;1.05;0.45;;;;;;;22.82;100.00;98677.91;10401298;28;20051;-84
2023/10/20 00:08:02;;;;;;;0.68;0.52;;;;;;;22.91;100.00;98671.25;10406588;28;20049;-84
2023/10/20 00:13:06;;;;;;;0.75;0.50;;;;;;;22.65;100.00;98660.56;10371734;28;20081;-84
2023/10/20 00:18:08;;;;;;;1.83;0.45;;;;;;;21.81;100.00;98647.00;10389685;28;20177;-83
2023/10/20 00:23:10;;;;;;;0.57;0.43;;;;;;;21.98;100.00;98645.19;10407207;28;20045;-84
2023/10/20 00:28:13;;;;;;;0.50;0.45;;;;;;;22.41;100.00;98639.25;10386126;28;20049;-83
2023/10/20 00:33:15;;;;;;;0.57;0.55;;;;;;;22.77;100.00;98633.56;10405733;28;20038;-84
2023/10/20 00:38:18;;;;;;;2.28;1.02;;;;;;;21.96;100.00;98626.06;10407756;28;20126;-83
2023/10/20 00:43:20;;;;;;;1.52;1.30;;;;;;;21.96;100.00;98620.81;10413824;28;20092;-83
2023/10/20 00:48:22;;;;;;;0.63;0.63;;;;;;;22.39;100.00;98601.75;10386910;28;20493;-84
2023/10/20 00:53:25;;;;;;;1.10;0.90;;;;;;;22.54;100.00;98595.59;10398677;28;20042;-84
2023/10/20 00:58:29;;;;;;;1.85;0.60;;;;;;;22.35;100.00;98590.59;10421885;28;20188;-83
2023/10/20 01:03:33;;;;;;;0.63;0.60;;;;;;;22.84;100.00;98573.66;10405679;28;20045;-84
2023/10/20 01:08:35;;;;;;;0.40;0.38;;;;;;;22.67;100.00;98569.47;10398792;28;20044;-84
2023/10/20 01:13:37;;;;;;;4.28;1.17;;;;;;;22.07;100.00;98555.53;10392100;28;20046;-83
2023/10/20 01:18:39;;;;;;;1.80;0.57;;;;;;;21.73;100.00;98544.38;10405788;28;20048;-82
2023/10/20 01:23:42;;;;;;;0.60;0.60;;;;;;;21.93;100.00;98540.59;10397182;28;20049;-82
2023/10/20 01:28:44;;;;;;;1.45;1.20;;;;;;;21.87;100.00;98544.41;10411984;28;20128;-83
2023/10/20 01:33:46;;;;;;;1.08;0.95;;;;;;;22.14;100.00;98545.50;10388664;28;20142;-84
2023/10/20 01:38:49;;;;;;;0.85;0.60;;;;;;;22.27;100.00;98542.97;10403154;28;20049;-84
2023/10/20 01:43:51;;;;;;;1.95;1.33;;;;;;;21.81;100.00;98550.00;10412073;28;20144;-83
2023/10/20 01:48:54;;;;;;;0.28;0.28;;;;;;;21.41;100.00;98536.53;10412379;28;20107;-83
2023/10/20 01:53:56;;;;;;;0.88;0.85;;;;;;;21.75;100.00;98524.16;10406921;28;20080;-83
2023/10/20 01:58:59;;;;;;;0.88;0.82;;;;;;;21.40;100.00;98492.97;10399025;28;20057;-83
2023/10/20 02:04:01;;;;;;;1.38;1.10;;;;;;;21.63;100.00;98475.13;10409808;28;20050;-84
2023/10/20 02:09:03;;;;;;;3.80;1.13;;;;;;;21.86;100.00;98482.44;10395324;28;20474;-82
2023/10/20 02:14:05;;;;;;;0.73;0.73;;;;;;;22.01;100.00;98483.31;10398420;28;20046;-84
2023/10/20 02:19:08;;;;;;;0.45;0.45;;;;;;;22.07;100.00;98487.34;10395232;28;20041;-83
2023/10/20 02:24:10;;;;;;;6.35;1.40;;;;;;;21.75;100.00;98477.00;10388843;28;20053;-84
2023/10/20 02:29:12;;;;;;;0.52;0.52;;;;;;;21.89;100.00;98457.84;10378124;28;20041;-84
2023/10/20 02:34:14;;;;;;;1.63;1.08;;;;;;;21.94;100.00;98450.53;10409939;28;20050;-84
2023/10/20 02:39:17;;;;;;;1.50;0.85;;;;;;;20.97;100.00;98437.78;10388111;28;20041;-84
2023/10/20 02:44:19;;;;;;;2.17;0.85;;;;;;;21.28;100.00;98433.44;10408343;28;20514;-83
2023/10/20 02:49:22;;;;;;;1.17;0.68;;;;;;;21.32;100.00;98422.69;10388123;28;20522;-83
2023/10/20 02:54:24;;;;;;;2.40;1.30;;;;;;;21.48;100.00;98417.38;10405725;28;20045;-83
2023/10/20 02:59:26;;;;;;;1.40;1.30;;;;;;;21.52;100.00;98397.94;10402388;28;20044;-83
2023/10/20 03:04:29;;;;;;;1.75;1.25;;;;;;;21.00;100.00;98395.75;10388056;28;20057;-83
2023/10/20 03:09:30;;;;;;;1.35;0.70;;;;;;;21.30;100.00;98380.03;10376362;28;20141;-83
2023/10/20 03:14:33;;;;;;;2.35;0.82;;;;;;;20.68;100.00;98359.13;10409207;28;20043;-85
2023/10/20 03:19:35;;;;;;;1.30;0.93;;;;;;;20.16;100.00;98366.34;10377838;28;20049;-82
2023/10/20 03:24:37;;;;;;;1.70;0.73;;;;;;;20.26;100.00;98349.22;10384237;28;20053;-82
2023/10/20 03:29:38;;;;;;;2.05;1.42;;;;;;;20.06;100.00;98334.63;10380954;28;20042;-83
2023/10/20 03:34:40;;;;;;;4.30;0.60;;;;;;;20.08;100.00;98324.94;10382610;28;20057;-83
2023/10/20 03:39:43;;;;;;;4.50;1.17;;;;;;;20.87;100.00;98317.97;10395645;28;20034;-83
2023/10/20 03:44:47;;;;;;;1.73;0.90;;;;;;;21.02;100.00;98315.38;10407454;28;20080;-83
2023/10/20 03:49:50;;;;;;;2.05;0.60;;;;;;;20.95;100.00;98319.28;10391134;28;20478;-83
2023/10/20 03:54:52;;;;;;;4.38;1.00;;;;;;;21.04;100.00;98310.88;10399034;28;20037;-83
2023/10/20 03:59:54;;;;;;;2.45;1.10;;;;;;;20.86;100.00;98299.72;10398744;28;20045;-83
2023/10/20 04:04:55;;;;;;;1.48;0.77;;;;;;;20.64;100.00;98294.84;10412901;28;20041;-83
2023/10/20 04:09:59;;;;;;;8.70;1.90;;;;;;;20.63;100.00;98294.00;10397551;28;20042;-83
2023/10/20 04:15:00;;;;;;;2.30;1.17;;;;;;;21.27;100.00;98272.00;10414955;28;20045;-83
2023/10/20 04:20:03;;;;;;;6.72;1.30;;;;;;;20.17;100.00;98284.38;10411048;28;20072;-83
2023/10/20 04:25:10;;;;;;;1.23;0.90;;;;;;;20.33;100.00;98267.84;10405566;28;20053;-83
2023/10/20 04:47:06;;;;;;;2.88;1.27;;;;;;;20.28;100.00;98237.56;10412609;28;20484;-85
2023/10/20 05:02:25;;;;;;;0.63;0.45;;;;;;;19.80;100.00;98218.44;10401400;28;20038;-84
2023/10/20 05:07:28;;;;;;;0.93;0.90;;;;;;;19.46;100.00;98191.56;10406562;28;20134;-85
2023/10/20 05:12:33;;;;;;;1.85;1.17;;;;;;;19.48;100.00;98174.03;10404489;28;20128;-85
2023/10/20 05:17:35;;;;;;;2.55;0.80;;;;;;;19.32;100.00;98174.84;10400511;28;20046;-85
2023/10/20 05:22:36;;;;;;;3.08;1.50;;;;;;;19.51;100.00;98155.59;10387458;28;20052;-85
2023/10/20 05:27:39;;;;;;;0.63;0.50;;;;;;;19.47;100.00;98130.59;10382787;28;20045;-85
2023/10/20 05:32:41;;;;;;;0.75;0.40;;;;;;;19.09;100.00;98131.72;10403132;28;20104;-84
2023/10/20 05:37:43;;;;;;;1.02;0.57;;;;;;;19.29;100.00;98128.06;10410405;28;20492;-87
2023/10/20 05:42:44;;;;;;;1.35;0.95;;;;;;;18.65;100.00;98117.47;10398890;28;20073;-84
2023/10/20 05:47:47;;;;;;;1.13;1.02;;;;;;;19.06;100.00;98125.84;10384863;28;20481;-84
2023/10/20 05:52:51;;;;;;;1.55;0.45;;;;;;;19.27;100.00;98116.03;10409115;28;20057;-84
2023/10/20 05:57:54;;;;;;;0.80;0.38;;;;;;;19.08;100.00;98108.34;10404479;28;20049;-84
2023/10/20 06:02:55;;;;;;;6.55;1.45;;;;;;;18.75;100.00;98117.00;10410417;28;20406;-85
2023/10/20 06:07:57;;;;;;;1.75;0.98;;;;;;;18.97;100.00;98135.84;10405117;28;20050;-84
2023/10/20 06:12:59;;;;;;;0.88;0.52;;;;;;;18.94;100.00;98143.84;10387809;28;20500;-86
2023/10/20 06:18:01;;;;;;;0.77;0.68;;;;;;;19.65;100.00;98140.00;10384006;28;20069;-85
2023/10/20 06:23:03;;;;;;;2.88;1.42;;;;;;;18.35;100.00;98131.19;10379649;28;20517;-85
2023/10/20 06:28:06;;;;;;;1.55;0.70;;;;;;;19.38;100.00;98121.47;10396307;28;20060;-85
2023/10/20 06:33:17;;;;;;;3.97;0.95;;;;;;;19.41;100.00;98099.56;10392340;28;20048;-84
2023/10/20 06:38:45;;;;;;;2.63;1.42;;;;;;;18.91;100.00;98112.66;10397254;28;20128;-84
2023/10/20 06:43:47;;;;;;;1.75;1.33;;;;;;;18.76;100.00;98105.63;10424920;28;20531;-84
2023/10/20 06:48:49;;;;;;;0.80;0.50;;;;;;;19.20;100.00;98122.50;10400549;28;20038;-85
2023/10/20 06:53:51;;;;;;;0.30;0.30;;;;;;;19.64;100.00;98122.66;10383947;28;20068;-85
2023/10/20 06:58:55;;;;;;;1.95;1.00;;;;;;;18.82;100.00;98097.50;10390031;28;20394;-84
2023/10/20 07:03:57;;;;;;;0.10;0.10;;;;;;;19.54;100.00;98095.38;10391437;28;20046;-86
2023/10/20 07:08:59;;;;;;;0.20;0.10;;;;;;;19.08;100.00;98108.34;10409394;28;20220;-85
2023/10/20 07:14:02;;;;;;;0.35;0.20;;;;;;;18.87;100.00;98111.16;10399748;28;20053;-86
2023/10/20 07:19:12;;;;;;;0.50;0.50;;;;;;;18.21;100.00;98089.31;10398760;28;20041;-87
2023/10/20 07:24:15;;;;;;;0.15;0.13;;;;;;;18.80;100.00;98083.72;10391109;28;20100;-86
2023/10/20 07:29:17;;;;;;;0.30;0.30;;;;;;;18.66;100.00;98074.81;10395858;28;20104;-86
2023/10/20 07:34:20;;;;;;;0.32;0.30;;;;;;;18.67;100.00;98073.91;10386761;28;20042;-87
2023/10/20 07:39:22;;;;;;;1.08;0.22;;;;;;;18.16;100.00;98078.28;10390160;28;20034;-86
2023/10/20 07:44:24;;;;;;;0.00;0.00;;;;;;;18.41;100.00;98071.81;10414826;28;20088;-86
2023/10/20 07:49:26;;;;;;;0.88;0.52;;;;;;;18.49;100.00;98085.31;10405233;28;20049;-85
2023/10/20 07:54:29;;;;;;;0.05;0.05;;;;;;;18.29;100.00;98074.13;10403662;28;20049;-86
2023/10/20 07:59:31;;;;;;;0.47;0.30;;;;;;;17.96;100.00;98069.72;10391510;28;20559;-85
2023/10/20 08:04:33;;;;;;;0.65;0.45;;;;;;;18.57;100.00;98075.31;10421785;28;20042;-85
2023/10/20 08:09:36;;;;;;;4.03;1.10;;;;;;;17.57;100.00;98071.53;10411065;28;20482;-86
2023/10/20 08:14:37;;;;;;;0.10;0.10;;;;;;;18.44;100.00;98082.06;10399981;28;20076;-85
2023/10/20 08:19:44;;;;;;;0.08;0.08;;;;;;;18.24;100.00;98076.13;10394627;28;20068;-85
2023/10/20 08:24:46;;;;;;;0.55;0.45;;;;;;;18.13;100.00;98055.84;10402981;28;20849;-85
2023/10/20 08:29:50;;;;;;;0.10;0.10;;;;;;;18.18;100.00;98058.22;10388034;28;20046;-84
2023/10/20 08:34:53;;;;;;;0.17;0.17;;;;;;;18.33;100.00;98057.44;10398815;28;20049;-85
2023/10/20 08:39:54;;;;;;;0.38;0.30;;;;;;;17.99;100.00;98046.09;10388836;28;20077;-85
2023/10/20 08:44:56;;;;;;;0.17;0.17;;;;;;;18.37;100.00;98043.31;10395845;28;20050;-85
2023/10/20 08:49:58;;;;;;;0.00;0.00;;;;;;;18.08;100.00;98050.03;10388822;28;20089;-84
2023/10/20 08:55:00;;;;;;;0.55;0.47;;;;;;;18.22;100.00;98057.13;10408206;28;20060;-85
2023/10/20 09:00:03;;;;;;;0.70;0.28;;;;;;;18.58;100.00;98060.50;10391560;28;20523;-84
2023/10/20 09:05:08;;;;;;;0.20;0.20;;;;;;;18.52;100.00;98046.88;10396191;28;20042;-85
2023/10/20 09:10:10;;;;;;;0.10;0.10;;;;;;;18.57;100.00;98053.63;10390575;28;20130;-84
2023/10/20 09:15:12;;;;;;;0.10;0.00;;;;;;;17.74;100.00;98047.31;10387316;28;20045;-85
2023/10/20 09:20:14;;;;;;;0.45;0.10;;;;;;;17.88;100.00;98044.00;10394838;28;20088;-84
2023/10/20 09:25:16;;;;;;;0.20;0.10;;;;;;;18.58;100.00;98058.75;10380529;28;20309;-85
2023/10/20 09:30:18;;;;;;;0.30;0.20;;;;;;;17.92;100.00;98061.19;10385423;28;20101;-84
2023/10/20 09:35:21;;;;;;;0.00;0.00;;;;;;;18.04;100.00;98059.75;10397898;28;20049;-83
2023/10/20 09:40:24;;;;;;;0.05;0.05;;;;;;;18.06;100.00;98052.69;10407511;28;20107;-85
2023/10/20 09:45:36;;;;;;;0.00;0.00;;;;;;;18.21;100.00;98051.09;10401916;28;20151;-84
2023/10/20 09:50:38;;;;;;;0.00;0.00;;;;;;;17.55;100.00;98042.16;10364874;28;20037;-85
2023/10/20 09:55:45;;;;;;;0.00;0.00;;;;;;;18.01;100.00;98033.84;10384394;28;20457;-84
2023/10/20 10:00:47;;;;;;;0.03;0.03;;;;;;;17.59;100.00;98029.84;10399988;28;20048;-84
2023/10/20 10:05:49;;;;;;;0.08;0.08;;;;;;;18.34;100.00;98034.81;10391060;28;20080;-84
2023/10/20 10:10:51;;;;;;;0.20;0.20;;;;;;;18.01;100.00;98033.03;10396663;28;20045;-84
2023/10/20 10:15:53;;;;;;;0.20;0.08;;;;;;;18.16;100.00;98041.81;10403820;28;20084;-84
2023/10/20 10:21:02;;;;;;;0.17;0.17;;;;;;;18.10;100.00;98034.31;10391908;28;20465;-84
2023/10/20 10:26:12;;;;;;;0.05;0.03;;;;;;;18.14;100.00;98035.81;10400434;28;20049;-84
2023/10/20 10:31:14;;;;;;;0.25;0.20;;;;;;;17.21;100.00;98019.53;10407742;28;20121;-85
2023/10/20 10:36:16;;;;;;;0.00;0.00;;;;;;;17.52;100.00;98012.84;10409411;28;20076;-85
2023/10/20 10:41:24;;;;;;;0.00;0.00;;;;;;;17.74;100.00;98005.66;10406510;28;20484;-86
2023/10/20 10:46:36;;;;;;;0.00;0.00;;;;;;;18.10;100.00;98000.44;10406803;28;20152;-83
2023/10/20 10:51:45;;;;;;;0.00;0.00;;;;;;;17.73;100.00;98003.97;10401065;28;20436;-84
2023/10/20 10:56:47;;;;;;;0.10;0.10;;;;;;;18.52;100.00;97976.50;10406887;28;20360;-85
2023/10/20 11:01:49;;;;;;;0.20;0.10;;;;;;;18.51;100.00;97976.56;10400211;28;20052;-84
2023/10/20 11:06:50;;;;;;;0.05;0.05;;;;;;;17.80;100.00;97962.81;10394992;28;20041;-85
2023/10/20 11:11:52;;;;;;;0.00;0.00;;;;;;;19.35;100.00;97944.16;10379390;28;20496;-85
2023/10/20 11:16:54;;;;;;;0.00;0.00;;;;;;;18.97;100.00;97955.81;10382382;28;20053;-85
2023/10/20 11:21:56;;;;;;;0.08;0.05;;;;;;;18.38;100.00;97951.16;10381615;28;20041;-84
2023/10/20 11:27:03;;;;;;;0.00;0.00;;;;;;;18.39;100.00;97939.81;10392700;28;20049;-84
2023/10/20 11:32:06;;;;;;;0.20;0.10;;;;;;;18.25;100.00;97937.09;10406159;28;20037;-84
2023/10/20 11:37:08;;;;;;;0.00;0.00;;;;;;;18.54;100.00;97916.44;10396512;28;20060;-84
2023/10/20 11:42:11;;;;;;;0.20;0.20;;;;;;;17.69;100.00;97906.09;10405829;28;20042;-86
2023/10/20 11:47:13;;;;;;;0.00;0.00;;;;;;;18.53;100.00;97899.97;10402388;28;20125;-85
2023/10/20 11:52:15;;;;;;;0.15;0.15;;;;;;;18.43;100.00;97882.31;10403293;28;20045;-85
2023/10/20 11:57:17;;;;;;;0.00;0.00;;;;;;;18.33;100.00;97877.59;10380192;28;20345;-84
2023/10/20 12:02:19;;;;;;;0.15;0.15;;;;;;;18.36;100.00;97874.81;10388147;28;20382;-84
2023/10/20 12:07:24;;;;;;;4.80;0.20;;;;;;;18.65;100.00;97866.31;10386997;28;20060;-84
2023/10/20 12:12:26;;;;;;;0.10;0.03;;;;;;;18.69;100.00;97862.63;10397574;28;20554;-85
2023/10/20 12:17:28;;;;;;;0.15;0.10;;;;;;;18.35;100.00;97852.31;10395181;28;20444;-85
2023/10/20 12:22:30;;;;;;;0.15;0.15;;;;;;;18.25;100.00;97848.50;10402828;28;20069;-85
2023/10/20 12:27:32;;;;;;;0.00;0.00;;;;;;;18.89;100.00;97848.44;10406226;28;20322;-84
2023/10/20 12:32:34;;;;;;;0.00;0.00;;;;;;;18.67;100.00;97844.44;10406864;28;20058;-84
2023/10/20 12:37:37;;;;;;;0.15;0.10;;;;;;;19.02;100.00;97835.56;10414672;28;20077;-84
2023/10/20 12:42:40;;;;;;;0.45;0.35;;;;;;;18.22;100.00;97833.03;10396486;28;20056;-84
2023/10/20 12:47:43;;;;;;;0.17;0.17;;;;;;;18.71;100.00;97819.88;10407715;28;20126;-85
2023/10/20 12:52:45;;;;;;;0.00;0.00;;;;;;;18.74;100.00;97812.78;10395339;28;20067;-84
2023/10/20 12:57:47;;;;;;;0.00;0.00;;;;;;;19.08;100.00;97797.84;10409295;28;20102;-84
2023/10/20 13:02:50;;;;;;;0.10;0.10;;;;;;;18.66;100.00;97801.03;10413701;28;20342;-85
2023/10/20 13:07:53;;;;;;;0.00;0.00;;;;;;;18.92;100.00;97785.69;10397209;28;20052;-84
2023/10/20 13:12:55;;;;;;;0.05;0.05;;;;;;;18.70;100.00;97781.69;10393043;28;20046;-86
2023/10/20 13:17:57;;;;;;;0.00;0.00;;;;;;;19.04;100.00;97784.16;10403142;28;20045;-85
2023/10/20 13:23:00;;;;;;;0.03;0.03;;;;;;;18.71;100.00;97778.16;10411209;28;20068;-84
2023/10/20 13:28:04;;;;;;;0.00;0.00;;;;;;;19.20;100.00;97781.47;10406025;28;20069;-85
2023/10/20 13:33:07;;;;;;;0.00;0.00;;;;;;;18.19;100.00;97786.31;10404434;28;20045;-85
2023/10/20 13:38:10;;;;;;;0.10;0.10;;;;;;;19.40;100.00;97779.44;10408156;28;20069;-84
2023/10/20 13:43:14;;;;;;;0.38;0.38;;;;;;;18.93;100.00;97779.56;10402539;28;20033;-85
2023/10/20 13:48:16;;;;;;;0.43;0.43;;;;;;;18.47;100.00;97771.75;10404625;28;20056;-84
2023/10/20 13:53:18;;;;;;;0.00;0.00;;;;;;;18.30;100.00;97781.34;10391640;28;20843;-84
2023/10/20 13:58:21;;;;;;;0.20;0.10;;;;;;;18.62;100.00;97773.47;10408961;28;20041;-84
2023/10/20 14:03:22;;;;;;;0.15;0.05;;;;;;;18.07;100.00;97765.22;10387616;28;20523;-84
2023/10/20 14:08:24;;;;;;;0.22;0.13;;;;;;;18.71;100.00;97765.13;10399560;28;20055;-84
2023/10/20 14:13:26;;;;;;;0.00;0.00;;;;;;;18.15;100.00;97750.94;10388423;28;20045;-85
2023/10/20 14:18:28;;;;;;;0.00;0.00;;;;;;;18.93;100.00;97750.88;10391364;28;20519;-86
2023/10/20 14:23:31;;;;;;;0.47;0.47;;;;;;;18.80;100.00;97765.53;10382297;28;20083;-85
2023/10/20 14:28:33;;;;;;;0.10;0.05;;;;;;;18.06;100.00;97765.31;10396203;28;20503;-84
2023/10/20 14:33:35;;;;;;;0.00;0.00;;;;;;;19.09;100.00;97765.63;10404549;28;20138;-85
2023/10/20 14:38:37;;;;;;;0.00;0.00;;;;;;;18.86;100.00;97775.59;10399548;28;20049;-84
2023/10/20 14:43:39;;;;;;;0.00;0.00;;;;;;;18.50;100.00;97779.41;10407479;28;20045;-84
2023/10/20 14:48:41;;;;;;;0.08;0.08;;;;;;;19.56;100.00;97793.22;10422497;28;20045;-85
2023/10/20 14:53:43;;;;;;;0.17;0.17;;;;;;;19.61;100.00;97809.47;10407615;28;20140;-85
2023/10/20 14:58:45;;;;;;;0.17;0.17;;;;;;;18.59;100.00;97799.72;10406933;28;20381;-85
2023/10/20 15:03:47;;;;;;;0.00;0.00;;;;;;;18.67;100.00;97794.06;10390346;28;20053;-84
2023/10/20 15:08:50;;;;;;;0.28;0.25;;;;;;;18.38;100.00;97797.38;10390221;28;20064;-85
2023/10/20 15:13:52;;;;;;;0.65;0.30;;;;;;;19.15;100.00;97793.94;10405706;28;20460;-84
2023/10/20 15:18:54;;;;;;;0.10;0.00;;;;;;;19.42;100.00;97804.50;10408837;28;20041;-84
2023/10/20 15:23:55;;;;;;;0.90;0.75;;;;;;;19.06;100.00;97811.00;10405736;28;20378;-83
2023/10/20 15:28:57;;;;;;;0.10;0.10;;;;;;;19.38;100.00;97820.44;10382280;28;20092;-83
2023/10/20 15:33:59;;;;;;;0.08;0.08;;;;;;;20.98;100.00;97835.78;10403559;28;20336;-84
2023/10/20 15:39:01;;;;;;;0.13;0.13;;;;;;;19.88;100.00;97832.25;10403566;28;20056;-85
2023/10/20 15:44:03;;;;;;;0.47;0.30;;;;;;;19.53;100.00;97832.59;10402306;28;20053;-84
2023/10/20 15:49:05;;;;;;;0.80;0.60;;;;;;;20.24;100.00;97846.56;10403309;28;20048;-84
2023/10/20 15:54:06;;;;;;;1.08;0.47;;;;;;;21.01;100.00;97837.34;10402653;28;20435;-84
2023/10/20 15:59:09;;;;;;;0.85;0.60;;;;;;;20.18;100.00;97854.78;10389261;28;20045;-83
2023/10/20 16:04:10;;;;;;;0.52;0.45;;;;;;;21.34;100.00;97849.97;10391868;28;20536;-84
2023/10/20 16:09:12;;;;;;;0.00;0.00;;;;;;;21.00;100.00;97873.13;10407398;28;20055;-84
2023/10/20 16:14:16;;;;;;;0.20;0.00;;;;;;;21.76;100.00;97864.66;10405125;28;20497;-84
2023/10/20 16:19:18;;;;;;;1.23;0.40;;;;;;;20.96;100.00;97866.44;10395139;28;20100;-83
2023/10/20 16:24:21;;;;;;;0.20;0.20;;;;;;;21.83;100.00;97871.16;10410262;28;20049;-83
2023/10/20 16:29:22;;;;;;;0.05;0.05;;;;;;;21.61;100.00;97879.66;10409802;28;20140;-83
2023/10/20 16:34:27;;;;;;;0.00;0.00;;;;;;;20.73;100.00;97875.78;10402976;28;20069;-84
2023/10/20 16:39:29;;;;;;;0.00;0.00;;;;;;;21.00;100.00;97893.25;10399382;28;20053;-84
2023/10/20 16:44:31;;;;;;;0.00;0.00;;;;;;;21.05;100.00;97901.63;10399110;28;20485;-84
2023/10/20 16:49:32;;;;;;;0.32;0.30;;;;;;;21.10;100.00;97901.34;10379363;28;20085;-84
2023/10/20 16:54:35;;;;;;;0.00;0.00;;;;;;;21.04;100.00;97916.50;10401394;28;20191;-84
2023/10/20 16:59:37;;;;;;;0.45;0.20;;;;;;;21.93;100.00;97910.69;10384082;28;20057;-84
2023/10/20 17:04:38;;;;;;;0.43;0.35;;;;;;;20.75;100.00;97921.00;10403688;28;20061;-83
2023/10/20 17:09:40;;;;;;;0.45;0.45;;;;;;;21.68;100.00;97930.69;10407530;28;20381;-84
2023/10/20 17:14:42;;;;;;;2.95;2.13;;;;;;;21.46;100.00;97934.72;10407089;28;20401;-83
2023/10/20 17:19:43;;;;;;;4.45;3.22;;;;;;;21.52;100.00;97946.59;10409797;28;20124;-83
2023/10/20 17:24:45;;;;;;;5.10;2.65;;;;;;;21.55;100.00;97949.00;10410804;28;20120;-84
2023/10/20 17:29:53;;;;;;;4.80;3.60;;;;;;;21.36;100.00;97965.06;10394120;28;20136;-83
2023/10/20 17:34:55;;;;;;;3.95;2.08;;;;;;;21.73;100.00;97970.53;10389219;28;20101;-83
2023/10/20 17:40:00;;;;;;;9.52;2.80;;;;;;;21.38;100.00;97976.28;10403677;28;20168;-83
2023/10/20 17:45:02;;;;;;;1.88;1.42;;;;;;;21.38;100.00;97981.53;10396367;28;20037;-83
2023/10/20 17:50:06;;;;;;;3.65;2.17;;;;;;;21.85;100.00;97988.06;10392219;28;20045;-83
2023/10/20 17:55:08;;;;;;;2.95;2.45;;;;;;;21.41;100.00;97991.78;10388244;28;20041;-83
2023/10/20 18:00:11;;;;;;;1.17;1.08;;;;;;;21.75;100.00;97989.59;10409358;28;20121;-83
2023/10/20 18:05:17;;;;;;;3.17;1.50;;;;;;;21.82;100.00;97995.25;10406048;28;20529;-83
2023/10/20 18:10:18;;;;;;;1.90;1.15;;;;;;;22.30;100.00;97999.91;10418906;28;20049;-83
2023/10/20 18:15:20;;;;;;;1.23;0.68;;;;;;;22.43;100.00;98000.78;10410139;28;20408;-83
2023/10/20 18:20:22;;;;;;;0.75;0.57;;;;;;;22.25;100.00;98007.25;10401449;28;20033;-83
2023/10/20 18:25:27;;;;;;;0.65;0.40;;;;;;;22.71;100.00;98011.94;10388507;28;20136;-83
2023/10/20 18:30:29;;;;;;;1.20;1.02;;;;;;;23.04;100.00;98010.50;10406990;28;20073;-83
2023/10/20 18:35:34;;;;;;;0.65;0.65;;;;;;;21.95;100.00;98017.09;10399693;28;20052;-82
2023/10/20 18:40:36;;;;;;;0.40;0.40;;;;;;;22.57;100.00;98033.06;10405987;28;20099;-83
2023/10/20 18:45:38;;;;;;;0.73;0.45;;;;;;;22.68;100.00;98030.53;10406778;28;20061;-83
2023/10/20 18:50:40;;;;;;;0.68;0.47;;;;;;;23.10;100.00;98031.06;10393388;28;20037;-83
2023/10/20 18:55:42;;;;;;;3.67;0.65;;;;;;;22.64;100.00;98034.31;10388955;28;20511;-83
2023/10/20 19:00:44;;;;;;;1.00;0.65;;;;;;;22.11;100.00;98043.13;10383731;28;20050;-83
2023/10/20 19:05:50;;;;;;;0.47;0.47;;;;;;;22.33;100.00;98046.91;10403865;28;20069;-83
2023/10/20 19:10:52;;;;;;;0.82;0.65;;;;;;;22.10;100.00;98051.91;10406842;28;20503;-83
2023/10/20 19:15:56;;;;;;;0.63;0.60;;;;;;;22.71;100.00;98056.56;10407127;28;20049;-83
2023/10/20 19:20:59;;;;;;;0.35;0.20;;;;;;;22.13;100.00;98072.69;10390362;28;20049;-83
2023/10/20 19:26:07;;;;;;;0.65;0.55;;;;;;;22.01;100.00;98073.50;10406023;28;20600;-82
2023/10/20 19:31:10;;;;;;;0.40;0.40;;;;;;;22.67;100.00;98078.72;10397417;28;20041;-83
2023/10/20 19:36:12;;;;;;;1.35;0.47;;;;;;;21.91;100.00;98098.66;10404073;28;20041;-84
2023/10/20 19:41:14;;;;;;;0.55;0.40;;;;;;;22.08;100.00;98095.75;10401316;28;20045;-83
2023/10/20 19:46:16;;;;;;;0.40;0.38;;;;;;;21.86;100.00;98106.81;10420273;28;20140;-82
2023/10/20 19:51:18;;;;;;;0.20;0.20;;;;;;;21.84;100.00;98106.94;10396249;28;20045;-83
2023/10/20 19:56:19;;;;;;;0.45;0.30;;;;;;;22.39;100.00;98100.75;10420184;28;20050;-83
2023/10/20 20:01:21;;;;;;;0.30;0.30;;;;;;;21.95;100.00;98121.09;10403515;28;20045;-83
2023/10/20 20:06:23;;;;;;;0.63;0.40;;;;;;;21.61;100.00;98125.91;10420408;28;20037;-83
2023/10/20 20:11:24;;;;;;;0.82;0.80;;;;;;;22.54;100.00;98125.09;10402581;28;20048;-84
2023/10/20 20:16:26;;;;;;;0.00;0.00;;;;;;;22.52;100.00;98129.63;10419106;28;20067;-84
2023/10/20 20:21:28;;;;;;;0.10;0.08;;;;;;;21.56;100.00;98147.94;10394211;28;20037;-83
2023/10/20 20:26:29;;;;;;;0.17;0.17;;;;;;;21.96;100.00;98165.56;10396714;28;20053;-83
2023/10/20 20:31:31;;;;;;;0.00;0.00;;;;;;;21.41;100.00;98167.25;10417995;28;20046;-83
2023/10/20 20:36:33;;;;;;;0.40;0.22;;;;;;;22.49;100.00;98168.22;10416696;28;20057;-83
2023/10/20 20:41:34;;;;;;;0.10;0.10;;;;;;;21.59;100.00;98182.78;10410881;28;20405;-84
2023/10/20 20:46:36;;;;;;;0.00;0.00;;;;;;;21.33;100.00;98185.25;10403539;28;20045;-83
2023/10/20 20:51:38;;;;;;;0.08;0.05;;;;;;;21.90;100.00;98181.66;10412735;28;20045;-84
2023/10/20 20:56:40;;;;;;;0.20;0.20;;;;;;;22.32;100.00;98192.09;10406358;28;20050;-84
2023/10/20 21:01:41;;;;;;;0.63;0.30;;;;;;;22.05;100.00;98199.97;10410753;28;20489;-82
2023/10/20 21:06:43;;;;;;;0.30;0.17;;;;;;;21.99;100.00;98207.28;10407859;28;20052;-83
2023/10/20 21:11:45;;;;;;;0.40;0.22;;;;;;;21.90;100.00;98213.13;10407515;28;20037;-83
2023/10/20 21:16:47;;;;;;;0.00;0.00;;;;;;;21.94;100.00;98221.63;10410810;28;20053;-84
2023/10/20 21:21:48;;;;;;;0.43;0.20;;;;;;;21.53;100.00;98229.38;10383268;28;20053;-83
2023/10/20 21:26:52;;;;;;;0.32;0.20;;;;;;;22.28;100.00;98222.91;10403539;28;20338;-83
2023/10/20 21:31:54;;;;;;;0.10;0.10;;;;;;;21.87;100.00;98224.66;10400037;28;20462;-83
2023/10/20 21:36:56;;;;;;;0.35;0.15;;;;;;;22.78;100.00;98227.56;10406831;28;20049;-82
2023/10/20 21:41:59;;;;;;;0.10;0.10;;;;;;;22.25;100.00;98238.88;10409834;28;20052;-83
2023/10/20 21:47:03;;;;;;;0.20;0.10;;;;;;;22.72;100.00;98226.19;10403389;28;20111;-83
2023/10/20 21:52:06;;;;;;;0.15;0.15;;;;;;;22.26;100.00;98247.56;10391469;28;20378;-83
2023/10/20 21:57:07;;;;;;;0.15;0.15;;;;;;;22.56;100.00;98242.13;10409432;28;20049;-83
2023/10/20 22:02:09;;;;;;;0.03;0.03;;;;;;;21.51;100.00;98254.81;10391711;28;20049;-83
2023/10/20 22:07:11;;;;;;;1.08;0.45;;;;;;;22.16;100.00;98256.00;10390253;28;20049;-83
2023/10/20 22:12:12;;;;;;;0.95;0.55;;;;;;;22.39;100.00;98255.50;10396606;28;20567;-83
2023/10/20 22:17:14;;;;;;;0.32;0.20;;;;;;;21.97;100.00;98266.84;10384710;28;20100;-83
2023/10/20 22:22:16;;;;;;;0.00;0.00;;;;;;;21.66;100.00;98266.16;10396958;28;20060;-83
2023/10/20 22:27:19;;;;;;;0.30;0.20;;;;;;;22.15;100.00;98280.56;10395938;28;20140;-83
2023/10/20 22:32:21;;;;;;;0.20;0.20;;;;;;;22.37;100.00;98273.09;10392901;28;20055;-83
2023/10/20 22:37:23;;;;;;;0.20;0.10;;;;;;;22.58;100.00;98270.88;10390211;28;20132;-83
2023/10/20 22:42:25;;;;;;;0.15;0.03;;;;;;;22.08;100.00;98276.63;10407724;28;20045;-83
2023/10/20 22:47:27;;;;;;;0.17;0.17;;;;;;;22.12;100.00;98286.00;10406779;28;20052;-83
2023/10/20 22:52:29;;;;;;;0.00;0.00;;;;;;;22.82;100.00;98295.47;10400604;28;20041;-83
2023/10/20 22:57:32;;;;;;;0.28;0.28;;;;;;;22.82;100.00;98292.84;10396152;28;20048;-82
2023/10/20 23:02:34;;;;;;;0.40;0.40;;;;;;;22.72;100.00;98289.19;10406790;28;20037;-83
2023/10/20 23:07:37;;;;;;;0.98;0.45;;;;;;;21.77;100.00;98302.19;10401692;28;20046;-83
2023/10/20 23:12:39;;;;;;;0.00;0.00;;;;;;;22.45;100.00;98305.78;10391189;28;20050;-83
2023/10/20 23:17:41;;;;;;;0.32;0.32;;;;;;;22.29;100.00;98312.94;10382290;28;20053;-83
2023/10/20 23:22:43;;;;;;;0.20;0.20;;;;;;;22.58;100.00;98323.38;10399819;28;20529;-83
2023/10/20 23:27:45;;;;;;;0.13;0.10;;;;;;;22.93;100.00;98313.19;10401920;28;20501;-83
2023/10/20 23:32:47;;;;;;;0.73;0.68;;;;;;;22.43;100.00;98326.03;10400579;28;20076;-83
2023/10/20 23:37:50;;;;;;;0.35;0.30;;;;;;;21.72;100.00;98319.94;10392090;28;20416;-83